Nago, Japan
Current Conditions -  °F | °C
As of 7:58 AM on Wednesday 28 Jan 2015 (Local Time) from RODN Reporting Station
Drizzle Drizzle  
Wind Chill: 58°   Ceiling: 2300
Heat Index: 58°   Visibility: 5mi
Dew Point: 57°   Wind: 6mph
Humidity: 94%   Direction: 70°ENE
Pressure: 30.11"   Gusts: NA
Location:  26.59°N, 127.99°E
Report Text: RODN 272258Z AUTO 07005KT 5SM -DZ BR BKN023 OVC028 15/14 A3011 RMK AO2 DZB2158E2210B2253 SLP204 P0000 T01470138
Loading
Personal Weather Stations






























Interactive Weather Map New forecast layout! Learn more

10-Day Weather Forecast

Advertisements
Track Severe Weather on mobile